sensor_id;sensor_type;location;lat;lon;timestamp;pressure;altitude;pressure_sealevel;temperature;humidity
38022;BME280;23832;43.216;27.946;2023-02-22T00:00:17;100529.50;;;16.04;39.39
38022;BME280;23832;43.216;27.946;2023-02-22T00:02:22;100526.03;;;16.04;39.21
38022;BME280;23832;43.216;27.946;2023-02-22T00:04:28;100524.19;;;16.04;39.52
38022;BME280;23832;43.216;27.946;2023-02-22T00:06:29;100519.09;;;16.03;39.41
38022;BME280;23832;43.216;27.946;2023-02-22T00:08:31;100517.47;;;16.02;39.69
38022;BME280;23832;43.216;27.946;2023-02-22T00:10:33;100526.47;;;16.01;39.65
38022;BME280;23832;43.216;27.946;2023-02-22T00:12:39;100516.66;;;16.01;39.55
38022;BME280;23832;43.216;27.946;2023-02-22T00:14:42;100521.16;;;16.01;39.53
38022;BME280;23832;43.216;27.946;2023-02-22T00:16:43;100523.19;;;15.99;39.71
38022;BME280;23832;43.216;27.946;2023-02-22T00:18:45;100518.91;;;15.98;39.85
38022;BME280;23832;43.216;27.946;2023-02-22T00:20:46;100514.81;;;15.95;39.92
38022;BME280;23832;43.216;27.946;2023-02-22T00:22:49;100519.34;;;15.95;39.96
38022;BME280;23832;43.216;27.946;2023-02-22T00:24:52;100518.72;;;15.93;40.15
38022;BME280;23832;43.216;27.946;2023-02-22T00:26:54;100521.59;;;15.91;39.91
38022;BME280;23832;43.216;27.946;2023-02-22T00:28:57;100520.78;;;15.91;39.79
38022;BME280;23832;43.216;27.946;2023-02-22T00:30:59;100523.63;;;15.89;40.09
38022;BME280;23832;43.216;27.946;2023-02-22T00:33:00;100521.19;;;15.87;40.10
38022;BME280;23832;43.216;27.946;2023-02-22T00:35:02;100512.03;;;15.83;40.13
38022;BME280;23832;43.216;27.946;2023-02-22T00:37:07;100517.56;;;15.82;40.00
38022;BME280;23832;43.216;27.946;2023-02-22T00:39:08;100517.13;;;15.78;40.03
38022;BME280;23832;43.216;27.946;2023-02-22T00:41:10;100519.19;;;15.76;40.23
38022;BME280;23832;43.216;27.946;2023-02-22T00:43:12;100515.13;;;15.74;40.37
38022;BME280;23832;43.216;27.946;2023-02-22T00:45:16;100520.63;;;15.72;40.46
38022;BME280;23832;43.216;27.946;2023-02-22T00:47:18;100523.72;;;15.69;40.48
38022;BME280;23832;43.216;27.946;2023-02-22T00:49:20;100518.81;;;15.66;40.62
38022;BME280;23832;43.216;27.946;2023-02-22T00:51:24;100523.31;;;15.66;40.39
38022;BME280;23832;43.216;27.946;2023-02-22T00:53:26;100529.84;;;15.63;40.61
38022;BME280;23832;43.216;27.946;2023-02-22T00:55:28;100524.91;;;15.60;40.52
38022;BME280;23832;43.216;27.946;2023-02-22T00:57:30;100532.28;;;15.58;40.68
38022;BME280;23832;43.216;27.946;2023-02-22T00:59:34;100528.00;;;15.57;40.47
38022;BME280;23832;43.216;27.946;2023-02-22T01:01:37;100518.81;;;15.53;40.47
38022;BME280;23832;43.216;27.946;2023-02-22T01:03:38;100520.84;;;15.51;40.60
38022;BME280;23832;43.216;27.946;2023-02-22T01:05:40;100520.84;;;15.51;40.48
38022;BME280;23832;43.216;27.946;2023-02-22T01:07:42;100521.06;;;15.49;40.68
38022;BME280;23832;43.216;27.946;2023-02-22T01:09:44;100526.59;;;15.48;40.78
38022;BME280;23832;43.216;27.946;2023-02-22T01:11:45;100523.34;;;15.46;41.01
38022;BME280;23832;43.216;27.946;2023-02-22T01:13:47;100523.72;;;15.43;41.06
38022;BME280;23832;43.216;27.946;2023-02-22T01:15:48;100517.59;;;15.42;40.94
38022;BME280;23832;43.216;27.946;2023-02-22T01:17:52;100517.81;;;15.41;41.12
38022;BME280;23832;43.216;27.946;2023-02-22T01:19:53;100520.91;;;15.38;41.15
38022;BME280;23832;43.216;27.946;2023-02-22T01:21:55;100515.97;;;15.34;41.50
38022;BME280;23832;43.216;27.946;2023-02-22T01:23:56;100521.50;;;15.33;41.50
38022;BME280;23832;43.216;27.946;2023-02-22T01:25:58;100524.16;;;15.33;41.43
38022;BME280;23832;43.216;27.946;2023-02-22T01:28:00;100522.75;;;15.30;41.65
38022;BME280;23832;43.216;27.946;2023-02-22T01:30:02;100521.09;;;15.29;41.84
38022;BME280;23832;43.216;27.946;2023-02-22T01:32:07;100516.00;;;15.28;41.73
38022;BME280;23832;43.216;27.946;2023-02-22T01:34:12;100515.16;;;15.27;41.80
38022;BME280;23832;43.216;27.946;2023-02-22T01:36:14;100519.88;;;15.25;41.83
38022;BME280;23832;43.216;27.946;2023-02-22T01:38:16;100513.97;;;15.23;41.80
38022;BME280;23832;43.216;27.946;2023-02-22T01:40:18;100513.97;;;15.23;41.92
38022;BME280;23832;43.216;27.946;2023-02-22T01:42:20;100509.06;;;15.20;42.04
38022;BME280;23832;43.216;27.946;2023-02-22T01:44:25;100510.09;;;15.19;42.11
38022;BME280;23832;43.216;27.946;2023-02-22T01:46:27;100518.25;;;15.18;42.18
38022;BME280;23832;43.216;27.946;2023-02-22T01:48:32;100517.63;;;15.16;42.36
38022;BME280;23832;43.216;27.946;2023-02-22T01:50:37;100524.78;;;15.15;42.27
38022;BME280;23832;43.216;27.946;2023-02-22T01:52:39;100520.72;;;15.13;42.37
38022;BME280;23832;43.216;27.946;2023-02-22T01:54:42;100525.22;;;15.12;42.46
38022;BME280;23832;43.216;27.946;2023-02-22T01:56:46;100521.75;;;15.12;42.59
38022;BME280;23832;43.216;27.946;2023-02-22T01:58:49;100523.75;;;15.10;42.78
38022;BME280;23832;43.216;27.946;2023-02-22T02:00:53;100519.47;;;15.09;42.52
38022;BME280;23832;43.216;27.946;2023-02-22T02:02:58;100520.50;;;15.08;42.59
38022;BME280;23832;43.216;27.946;2023-02-22T02:05:01;100524.38;;;15.05;42.75
38022;BME280;23832;43.216;27.946;2023-02-22T02:07:09;100528.06;;;15.04;42.84
38022;BME280;23832;43.216;27.946;2023-02-22T02:09:13;100520.53;;;15.01;42.91
38022;BME280;23832;43.216;27.946;2023-02-22T02:11:17;100531.13;;;15.01;43.14
38022;BME280;23832;43.216;27.946;2023-02-22T02:13:19;100546.66;;;15.04;43.17
38022;BME280;23832;43.216;27.946;2023-02-22T02:15:22;100541.13;;;15.05;43.22
38022;BME280;23832;43.216;27.946;2023-02-22T02:17:24;100547.88;;;15.08;43.48
38022;BME280;23832;43.216;27.946;2023-02-22T02:19:29;100544.81;;;15.11;43.58
38022;BME280;23832;43.216;27.946;2023-02-22T02:21:39;100556.03;;;15.13;43.85
38022;BME280;23832;43.216;27.946;2023-02-22T02:23:51;100552.38;;;15.14;43.68
38022;BME280;23832;43.216;27.946;2023-02-22T02:26:15;100552.38;;;15.14;43.72
38022;BME280;23832;43.216;27.946;2023-02-22T02:28:35;100555.84;;;15.15;43.63
38022;BME280;23832;43.216;27.946;2023-02-22T02:30:42;100558.28;;;15.16;43.74
38022;BME280;23832;43.216;27.946;2023-02-22T02:32:52;100555.63;;;15.16;43.79
38022;BME280;23832;43.216;27.946;2023-02-22T02:34:55;100553.78;;;15.17;43.76
38022;BME280;23832;43.216;27.946;2023-02-22T02:37:00;100556.22;;;15.18;43.81
38022;BME280;23832;43.216;27.946;2023-02-22T02:39:07;100554.41;;;15.19;43.71
38022;BME280;23832;43.216;27.946;2023-02-22T02:41:11;100559.53;;;15.20;43.97
38022;BME280;23832;43.216;27.946;2023-02-22T02:43:16;100561.75;;;15.23;43.96
38022;BME280;23832;43.216;27.946;2023-02-22T02:45:22;100559.91;;;15.24;43.93
38022;BME280;23832;43.216;27.946;2023-02-22T02:47:27;100554.81;;;15.22;43.94
38022;BME280;23832;43.216;27.946;2023-02-22T02:49:32;100556.66;;;15.22;43.96
38022;BME280;23832;43.216;27.946;2023-02-22T02:51:37;100559.31;;;15.22;44.11
38022;BME280;23832;43.216;27.946;2023-02-22T02:53:40;100559.31;;;15.22;44.05
38022;BME280;23832;43.216;27.946;2023-02-22T02:55:43;100567.06;;;15.23;44.16
38022;BME280;23832;43.216;27.946;2023-02-22T02:57:44;100563.81;;;15.21;44.24
38022;BME280;23832;43.216;27.946;2023-02-22T02:59:46;100575.47;;;15.20;44.17
38022;BME280;23832;43.216;27.946;2023-02-22T03:01:48;100569.72;;;15.23;43.96
38022;BME280;23832;43.216;27.946;2023-02-22T03:04:05;100567.50;;;15.20;44.26
38022;BME280;23832;43.216;27.946;2023-02-22T03:06:23;100580.56;;;15.15;44.32
38022;BME280;23832;43.216;27.946;2023-02-22T03:08:29;100580.97;;;15.12;44.40
38022;BME280;23832;43.216;27.946;2023-02-22T03:10:42;100577.72;;;15.10;44.29
38022;BME280;23832;43.216;27.946;2023-02-22T03:12:47;100578.69;;;15.09;44.47
38022;BME280;23832;43.216;27.946;2023-02-22T03:14:52;100581.78;;;15.06;44.48
38022;BME280;23832;43.216;27.946;2023-02-22T03:17:00;100583.22;;;15.02;44.64
38022;BME280;23832;43.216;27.946;2023-02-22T03:19:06;100585.44;;;14.98;44.74
38022;BME280;23832;43.216;27.946;2023-02-22T03:21:10;100583.41;;;14.94;44.76
38022;BME280;23832;43.216;27.946;2023-02-22T03:23:19;100587.47;;;14.90;45.03
38022;BME280;23832;43.216;27.946;2023-02-22T03:25:26;100576.66;;;14.85;45.01
38022;BME280;23832;43.216;27.946;2023-02-22T03:27:32;100573.19;;;14.84;45.10
38022;BME280;23832;43.216;27.946;2023-02-22T03:29:37;100580.72;;;14.81;45.12
38022;BME280;23832;43.216;27.946;2023-02-22T03:31:40;100583.78;;;14.77;45.26
38022;BME280;23832;43.216;27.946;2023-02-22T03:33:44;100586.84;;;14.74;45.37
38022;BME280;23832;43.216;27.946;2023-02-22T03:35:48;100582.75;;;14.72;45.39
38022;BME280;23832;43.216;27.946;2023-02-22T03:37:56;100588.47;;;14.69;45.45
38022;BME280;23832;43.216;27.946;2023-02-22T03:40:02;100590.72;;;14.65;45.39
38022;BME280;23832;43.216;27.946;2023-02-22T03:42:13;100590.69;;;14.59;45.70
38022;BME280;23832;43.216;27.946;2023-02-22T03:44:17;100593.09;;;14.54;45.72
38022;BME280;23832;43.216;27.946;2023-02-22T03:46:21;100587.38;;;14.50;45.90
38022;BME280;23832;43.216;27.946;2023-02-22T03:48:24;100593.09;;;14.47;45.79
38022;BME280;23832;43.216;27.946;2023-02-22T03:50:29;100588.16;;;14.44;46.01
38022;BME280;23832;43.216;27.946;2023-02-22T03:52:34;100588.56;;;14.41;45.82
38022;BME280;23832;43.216;27.946;2023-02-22T03:54:36;100588.13;;;14.37;46.08
38022;BME280;23832;43.216;27.946;2023-02-22T03:56:41;100593.00;;;14.34;45.98
38022;BME280;23832;43.216;27.946;2023-02-22T03:58:46;100589.75;;;14.32;46.24
38022;BME280;23832;43.216;27.946;2023-02-22T04:00:48;100586.66;;;14.28;46.22
38022;BME280;23832;43.216;27.946;2023-02-22T04:02:53;100587.88;;;14.26;46.25
38022;BME280;23832;43.216;27.946;2023-02-22T04:04:54;100586.25;;;14.25;46.18
38022;BME280;23832;43.216;27.946;2023-02-22T04:06:56;100586.44;;;14.23;46.39
38022;BME280;23832;43.216;27.946;2023-02-22T04:08:57;100584.00;;;14.22;46.29
38022;BME280;23832;43.216;27.946;2023-02-22T04:10:59;100576.25;;;14.20;46.59
38022;BME280;23832;43.216;27.946;2023-02-22T04:13:02;100580.69;;;14.19;46.51
38022;BME280;23832;43.216;27.946;2023-02-22T04:15:06;100572.94;;;14.18;46.62
38022;BME280;23832;43.216;27.946;2023-02-22T04:17:08;100576.81;;;14.15;46.46
38022;BME280;23832;43.216;27.946;2023-02-22T04:19:10;100569.28;;;14.12;46.55
38022;BME280;23832;43.216;27.946;2023-02-22T04:21:12;100574.94;;;14.09;46.78
38022;BME280;23832;43.216;27.946;2023-02-22T04:23:14;100575.16;;;14.08;47.10
38022;BME280;23832;43.216;27.946;2023-02-22T04:25:16;100575.34;;;14.06;46.94
38022;BME280;23832;43.216;27.946;2023-02-22T04:27:18;100571.06;;;14.05;46.94
38022;BME280;23832;43.216;27.946;2023-02-22T04:29:21;100572.09;;;14.04;47.21
38022;BME280;23832;43.216;27.946;2023-02-22T04:31:23;100565.16;;;14.03;47.05
38022;BME280;23832;43.216;27.946;2023-02-22T04:33:24;100566.16;;;14.02;47.27
38022;BME280;23832;43.216;27.946;2023-02-22T04:35:26;100575.09;;;14.01;47.42
38022;BME280;23832;43.216;27.946;2023-02-22T04:37:27;100582.44;;;13.99;47.42
38022;BME280;23832;43.216;27.946;2023-02-22T04:39:29;100578.56;;;13.95;47.38
38022;BME280;23832;43.216;27.946;2023-02-22T04:41:31;100587.72;;;13.92;47.80
38022;BME280;23832;43.216;27.946;2023-02-22T04:43:33;100583.44;;;13.91;47.51
38022;BME280;23832;43.216;27.946;2023-02-22T04:45:36;100593.41;;;13.89;47.68
38022;BME280;23832;43.216;27.946;2023-02-22T04:47:38;100596.06;;;13.89;48.02
38022;BME280;23832;43.216;27.946;2023-02-22T04:49:39;100598.72;;;13.89;47.75
38022;BME280;23832;43.216;27.946;2023-02-22T04:51:41;100600.53;;;13.89;48.08
38022;BME280;23832;43.216;27.946;2023-02-22T04:53:43;100602.19;;;13.90;48.03
38022;BME280;23832;43.216;27.946;2023-02-22T04:55:44;100607.47;;;13.90;48.04
38022;BME280;23832;43.216;27.946;2023-02-22T04:57:46;100598.50;;;13.91;48.07
38022;BME280;23832;43.216;27.946;2023-02-22T04:59:47;100596.88;;;13.90;47.89
38022;BME280;23832;43.216;27.946;2023-02-22T05:01:51;100601.34;;;13.89;47.66
38022;BME280;23832;43.216;27.946;2023-02-22T05:03:53;100600.94;;;13.86;47.96
38022;BME280;23832;43.216;27.946;2023-02-22T05:05:54;100608.28;;;13.84;48.14
38022;BME280;23832;43.216;27.946;2023-02-22T05:07:56;100611.28;;;13.81;47.87
38022;BME280;23832;43.216;27.946;2023-02-22T05:09:58;100607.81;;;13.80;48.25
38022;BME280;23832;43.216;27.946;2023-02-22T05:12:02;100617.22;;;13.83;48.65
38022;BME280;23832;43.216;27.946;2023-02-22T05:14:03;100615.22;;;13.85;48.89
38022;BME280;23832;43.216;27.946;2023-02-22T05:16:05;100616.03;;;13.92;48.98
38022;BME280;23832;43.216;27.946;2023-02-22T05:18:08;100622.22;;;13.99;49.24
38022;BME280;23832;43.216;27.946;2023-02-22T05:20:14;100623.88;;;14.07;49.09
38022;BME280;23832;43.216;27.946;2023-02-22T05:22:17;100622.72;;;14.16;48.85
38022;BME280;23832;43.216;27.946;2023-02-22T05:24:18;100635.00;;;14.24;48.96
38022;BME280;23832;43.216;27.946;2023-02-22T05:26:20;100636.47;;;14.33;48.84
38022;BME280;23832;43.216;27.946;2023-02-22T05:28:21;100643.22;;;14.42;48.68
38022;BME280;23832;43.216;27.946;2023-02-22T05:30:24;100649.41;;;14.49;48.62
38022;BME280;23832;43.216;27.946;2023-02-22T05:32:26;100656.00;;;14.60;48.61
38022;BME280;23832;43.216;27.946;2023-02-22T05:34:29;100651.13;;;14.70;48.54
38022;BME280;23832;43.216;27.946;2023-02-22T05:36:31;100658.91;;;14.78;48.53
38022;BME280;23832;43.216;27.946;2023-02-22T05:38:33;100659.34;;;14.88;48.59
38022;BME280;23832;43.216;27.946;2023-02-22T05:40:34;100650.78;;;14.99;48.62
38022;BME280;23832;43.216;27.946;2023-02-22T05:42:36;100656.13;;;15.13;48.52
38022;BME280;23832;43.216;27.946;2023-02-22T05:44:39;100662.47;;;15.25;48.47
38022;BME280;23832;43.216;27.946;2023-02-22T05:46:41;100659.03;;;15.38;48.36
38022;BME280;23832;43.216;27.946;2023-02-22T05:48:43;100666.38;;;15.49;48.00
38022;BME280;23832;43.216;27.946;2023-02-22T05:50:46;100675.41;;;15.61;47.44
38022;BME280;23832;43.216;27.946;2023-02-22T05:52:49;100670.09;;;15.74;47.64
38022;BME280;23832;43.216;27.946;2023-02-22T05:54:50;100670.28;;;15.86;47.62
38022;BME280;23832;43.216;27.946;2023-02-22T05:56:52;100678.63;;;16.03;47.60
38022;BME280;23832;43.216;27.946;2023-02-22T05:58:56;100681.88;;;16.18;47.16
38022;BME280;23832;43.216;27.946;2023-02-22T06:00:58;100682.66;;;16.32;46.97
38022;BME280;23832;43.216;27.946;2023-02-22T06:03:01;100683.44;;;16.45;46.73
38022;BME280;23832;43.216;27.946;2023-02-22T06:05:03;100682.34;;;16.60;46.38
38022;BME280;23832;43.216;27.946;2023-02-22T06:07:06;100684.56;;;16.76;46.75
38022;BME280;23832;43.216;27.946;2023-02-22T06:09:08;100688.97;;;16.95;46.25
38022;BME280;23832;43.216;27.946;2023-02-22T06:11:10;100683.75;;;17.14;46.23
38022;BME280;23832;43.216;27.946;2023-02-22T06:13:12;100696.94;;;17.34;46.24
38022;BME280;23832;43.216;27.946;2023-02-22T06:15:14;100693.09;;;17.54;45.80
38022;BME280;23832;43.216;27.946;2023-02-22T06:17:16;100694.59;;;17.75;45.76
38022;BME280;23832;43.216;27.946;2023-02-22T06:19:18;100698.72;;;17.96;45.42
38022;BME280;23832;43.216;27.946;2023-02-22T06:21:20;100696.06;;;18.14;44.89
38022;BME280;23832;43.216;27.946;2023-02-22T06:23:23;100702.25;;;18.33;45.08
38022;BME280;23832;43.216;27.946;2023-02-22T06:25:25;100697.72;;;18.52;45.06
38022;BME280;23832;43.216;27.946;2023-02-22T06:27:29;100710.63;;;18.74;44.93
38022;BME280;23832;43.216;27.946;2023-02-22T06:29:31;100706.44;;;18.96;44.79
38022;BME280;23832;43.216;27.946;2023-02-22T06:31:32;100710.47;;;19.17;44.49
38022;BME280;23832;43.216;27.946;2023-02-22T06:33:34;100711.22;;;19.36;44.20
38022;BME280;23832;43.216;27.946;2023-02-22T06:35:37;100708.03;;;19.57;44.01
38022;BME280;23832;43.216;27.946;2023-02-22T06:37:39;100711.44;;;19.76;43.57
38022;BME280;23832;43.216;27.946;2023-02-22T06:39:42;100712.97;;;19.95;43.14
38022;BME280;23832;43.216;27.946;2023-02-22T06:41:44;100708.53;;;20.12;42.79
38022;BME280;23832;43.216;27.946;2023-02-22T06:43:47;100715.84;;;20.29;42.26
38022;BME280;23832;43.216;27.946;2023-02-22T06:45:48;100714.34;;;20.45;42.14
38022;BME280;23832;43.216;27.946;2023-02-22T06:47:50;100712.44;;;20.57;41.63
38022;BME280;23832;43.216;27.946;2023-02-22T06:49:52;100711.13;;;20.71;41.33
38022;BME280;23832;43.216;27.946;2023-02-22T06:51:54;100721.81;;;20.83;40.60
38022;BME280;23832;43.216;27.946;2023-02-22T06:53:55;100722.81;;;20.93;40.06
38022;BME280;23832;43.216;27.946;2023-02-22T06:55:58;100715.94;;;20.97;39.72
38022;BME280;23832;43.216;27.946;2023-02-22T06:58:02;100717.06;;;21.02;39.12
38022;BME280;23832;43.216;27.946;2023-02-22T07:00:04;100713.94;;;21.05;39.16
38022;BME280;23832;43.216;27.946;2023-02-22T07:02:08;100714.00;;;21.10;39.23
38022;BME280;23832;43.216;27.946;2023-02-22T07:04:09;100710.69;;;21.19;39.66
38022;BME280;23832;43.216;27.946;2023-02-22T07:06:11;100716.88;;;21.32;39.61
38022;BME280;23832;43.216;27.946;2023-02-22T07:08:13;100715.72;;;21.44;39.52
38022;BME280;23832;43.216;27.946;2023-02-22T07:10:15;100719.72;;;21.59;39.24
38022;BME280;23832;43.216;27.946;2023-02-22T07:12:19;100714.28;;;21.70;39.00
38022;BME280;23832;43.216;27.946;2023-02-22T07:14:20;100726.31;;;21.85;39.18
38022;BME280;23832;43.216;27.946;2023-02-22T07:16:22;100719.53;;;21.99;38.87
38022;BME280;23832;43.216;27.946;2023-02-22T07:18:23;100728.09;;;22.13;38.15
38022;BME280;23832;43.216;27.946;2023-02-22T07:20:26;100720.09;;;22.18;37.52
38022;BME280;23832;43.216;27.946;2023-02-22T07:22:28;100717.25;;;22.24;37.24
38022;BME280;23832;43.216;27.946;2023-02-22T07:24:29;100714.88;;;22.28;36.79
38022;BME280;23832;43.216;27.946;2023-02-22T07:26:37;100718.38;;;22.28;36.30
38022;BME280;23832;43.216;27.946;2023-02-22T07:28:41;100706.59;;;22.29;36.43
38022;BME280;23832;43.216;27.946;2023-02-22T07:30:43;100711.75;;;22.36;36.50
38022;BME280;23832;43.216;27.946;2023-02-22T07:32:45;100710.25;;;22.45;36.88
38022;BME280;23832;43.216;27.946;2023-02-22T07:34:47;100702.91;;;22.57;36.45
38022;BME280;23832;43.216;27.946;2023-02-22T07:36:49;100701.97;;;22.69;36.03
38022;BME280;23832;43.216;27.946;2023-02-22T07:38:51;100702.88;;;22.79;35.95
38022;BME280;23832;43.216;27.946;2023-02-22T07:40:52;100707.03;;;22.87;35.39
38022;BME280;23832;43.216;27.946;2023-02-22T07:42:57;100704.16;;;22.93;35.71
38022;BME280;23832;43.216;27.946;2023-02-22T07:45:01;100701.00;;;23.02;35.67
38022;BME280;23832;43.216;27.946;2023-02-22T07:47:03;100709.22;;;23.17;35.88
38022;BME280;23832;43.216;27.946;2023-02-22T07:49:05;100708.00;;;23.30;35.53
38022;BME280;23832;43.216;27.946;2023-02-22T07:51:06;100703.00;;;23.43;35.51
38022;BME280;23832;43.216;27.946;2023-02-22T07:53:10;100702.59;;;23.57;35.50
38022;BME280;23832;43.216;27.946;2023-02-22T07:55:12;100698.41;;;23.71;34.90
38022;BME280;23832;43.216;27.946;2023-02-22T07:57:14;100702.00;;;23.87;34.84
38022;BME280;23832;43.216;27.946;2023-02-22T07:59:16;100702.41;;;24.05;34.98
38022;BME280;23832;43.216;27.946;2023-02-22T08:01:19;100706.53;;;24.23;34.52
38022;BME280;23832;43.216;27.946;2023-02-22T08:03:22;100710.69;;;24.41;34.27
38022;BME280;23832;43.216;27.946;2023-02-22T08:05:24;100707.00;;;24.57;34.31
38022;BME280;23832;43.216;27.946;2023-02-22T08:07:26;100701.41;;;24.74;33.75
38022;BME280;23832;43.216;27.946;2023-02-22T08:09:27;100680.09;;;24.78;33.92
38022;BME280;23832;43.216;27.946;2023-02-22T08:11:29;100708.53;;;25.11;33.74
38022;BME280;23832;43.216;27.946;2023-02-22T08:13:31;100706.13;;;25.30;33.14
38022;BME280;23832;43.216;27.946;2023-02-22T08:15:34;100710.16;;;25.47;32.89
38022;BME280;23832;43.216;27.946;2023-02-22T08:17:37;100707.47;;;25.68;32.86
38022;BME280;23832;43.216;27.946;2023-02-22T08:19:39;100711.53;;;25.86;32.21
38022;BME280;23832;43.216;27.946;2023-02-22T08:21:41;100700.44;;;25.97;31.45
38022;BME280;23832;43.216;27.946;2023-02-22T08:23:43;100708.53;;;26.08;31.43
38022;BME280;23832;43.216;27.946;2023-02-22T08:25:45;100706.88;;;26.17;31.39
38022;BME280;23832;43.216;27.946;2023-02-22T08:27:46;100707.94;;;26.26;31.03
38022;BME280;23832;43.216;27.946;2023-02-22T08:29:48;100708.44;;;26.33;30.99
38022;BME280;23832;43.216;27.946;2023-02-22T08:31:49;100700.03;;;26.45;31.24
38022;BME280;23832;43.216;27.946;2023-02-22T08:33:54;100700.25;;;26.58;31.21
38022;BME280;23832;43.216;27.946;2023-02-22T08:35:56;100707.19;;;26.75;31.11
38022;BME280;23832;43.216;27.946;2023-02-22T08:37:59;100696.59;;;26.88;30.95
38022;BME280;23832;43.216;27.946;2023-02-22T08:40:01;100706.78;;;27.02;30.38
38022;BME280;23832;43.216;27.946;2023-02-22T08:42:02;100702.13;;;27.12;30.15
38022;BME280;23832;43.216;27.946;2023-02-22T08:44:04;100699.91;;;27.20;29.67
38022;BME280;23832;43.216;27.946;2023-02-22T08:46:06;100703.59;;;27.34;30.04
38022;BME280;23832;43.216;27.946;2023-02-22T08:48:08;100704.00;;;27.51;30.06
38022;BME280;23832;43.216;27.946;2023-02-22T08:50:14;100705.75;;;27.71;29.67
38022;BME280;23832;43.216;27.946;2023-02-22T08:52:17;100703.16;;;27.85;29.19
38022;BME280;23832;43.216;27.946;2023-02-22T08:54:20;100703.59;;;27.97;29.04
38022;BME280;23832;43.216;27.946;2023-02-22T08:56:22;100701.00;;;28.11;29.22
38022;BME280;23832;43.216;27.946;2023-02-22T08:58:24;100705.16;;;28.27;29.20
38022;BME280;23832;43.216;27.946;2023-02-22T09:00:26;100708.75;;;28.46;29.20
38022;BME280;23832;43.216;27.946;2023-02-22T09:02:28;100716.34;;;28.68;29.15
38022;BME280;23832;43.216;27.946;2023-02-22T09:04:30;100711.22;;;28.86;28.51
38022;BME280;23832;43.216;27.946;2023-02-22T09:06:33;100716.13;;;29.02;28.33
38022;BME280;23832;43.216;27.946;2023-02-22T09:08:34;100714.00;;;29.18;27.89
38022;BME280;23832;43.216;27.946;2023-02-22T09:10:36;100712.16;;;29.32;27.92
38022;BME280;23832;43.216;27.946;2023-02-22T09:12:38;100719.00;;;29.49;27.94
38022;BME280;23832;43.216;27.946;2023-02-22T09:14:39;100717.22;;;29.72;28.11
38022;BME280;23832;43.216;27.946;2023-02-22T09:16:42;100717.97;;;29.77;27.49
38022;BME280;23832;43.216;27.946;2023-02-22T09:18:44;100724.09;;;29.69;26.76
38022;BME280;23832;43.216;27.946;2023-02-22T09:20:46;100720.88;;;29.48;26.78
38022;BME280;23832;43.216;27.946;2023-02-22T09:22:49;100722.53;;;29.30;27.57
38022;BME280;23832;43.216;27.946;2023-02-22T09:24:51;100719.81;;;29.11;27.47
38022;BME280;23832;43.216;27.946;2023-02-22T09:27:04;100726.34;;;28.92;28.27
38022;BME280;23832;43.216;27.946;2023-02-22T09:29:06;100721.16;;;28.71;28.03
38022;BME280;23832;43.216;27.946;2023-02-22T09:31:09;100719.69;;;28.60;27.99
38022;BME280;23832;43.216;27.946;2023-02-22T09:33:12;100725.53;;;28.48;28.54
38022;BME280;23832;43.216;27.946;2023-02-22T09:35:14;100719.94;;;28.40;28.42
38022;BME280;23832;43.216;27.946;2023-02-22T09:37:16;100723.88;;;28.28;27.97
38022;BME280;23832;43.216;27.946;2023-02-22T09:39:19;100721.88;;;28.10;28.19
38022;BME280;23832;43.216;27.946;2023-02-22T09:41:22;100719.09;;;27.91;28.22
38022;BME280;23832;43.216;27.946;2023-02-22T09:43:33;100717.97;;;27.68;28.33
38022;BME280;23832;43.216;27.946;2023-02-22T09:45:41;100733.81;;;27.46;28.50
38022;BME280;23832;43.216;27.946;2023-02-22T09:47:48;100722.63;;;27.24;28.30
38022;BME280;23832;43.216;27.946;2023-02-22T09:49:53;100720.84;;;27.04;28.75
38022;BME280;23832;43.216;27.946;2023-02-22T09:51:57;100730.16;;;26.82;28.95
38022;BME280;23832;43.216;27.946;2023-02-22T09:54:02;100718.06;;;26.65;29.51
38022;BME280;23832;43.216;27.946;2023-02-22T09:56:07;100712.72;;;26.54;29.74
38022;BME280;23832;43.216;27.946;2023-02-22T09:58:13;100721.06;;;26.58;30.54
38022;BME280;23832;43.216;27.946;2023-02-22T10:00:19;100722.34;;;26.76;31.05
38022;BME280;23832;43.216;27.946;2023-02-22T10:02:25;100712.81;;;26.88;30.86
38022;BME280;23832;43.216;27.946;2023-02-22T10:04:33;100721.09;;;27.02;30.53
38022;BME280;23832;43.216;27.946;2023-02-22T10:06:36;100719.97;;;27.13;30.03
38022;BME280;23832;43.216;27.946;2023-02-22T10:08:39;100720.94;;;27.33;30.74
38022;BME280;23832;43.216;27.946;2023-02-22T10:10:42;100717.47;;;27.56;30.61
38022;BME280;23832;43.216;27.946;2023-02-22T10:12:47;100719.97;;;27.87;30.86
38022;BME280;23832;43.216;27.946;2023-02-22T10:14:59;100713.06;;;28.23;30.88
38022;BME280;23832;43.216;27.946;2023-02-22T10:17:09;100719.34;;;28.67;29.83
38022;BME280;23832;43.216;27.946;2023-02-22T10:19:16;100714.94;;;28.95;29.80
38022;BME280;23832;43.216;27.946;2023-02-22T10:21:25;100709.09;;;29.20;29.62
38022;BME280;23832;43.216;27.946;2023-02-22T10:23:32;100712.50;;;29.45;29.72
38022;BME280;23832;43.216;27.946;2023-02-22T10:25:36;100706.66;;;29.70;29.28
38022;BME280;23832;43.216;27.946;2023-02-22T10:27:40;100710.94;;;29.90;28.10
38022;BME280;23832;43.216;27.946;2023-02-22T10:29:45;100705.53;;;30.04;28.13
38022;BME280;23832;43.216;27.946;2023-02-22T10:31:50;100709.06;;;30.18;28.19
38022;BME280;23832;43.216;27.946;2023-02-22T10:33:54;100704.03;;;30.25;27.94
38022;BME280;23832;43.216;27.946;2023-02-22T10:35:57;100701.59;;;30.10;26.96